createdAt,value
2019-04-23T00:00:07.319Z,2.03
2019-04-23T00:05:51.447Z,2.10
2019-04-23T00:08:25.854Z,2.40
2019-04-23T00:10:53.392Z,2.57
2019-04-23T00:13:24.171Z,1.93
2019-04-23T00:16:03.015Z,1.90
2019-04-23T00:18:37.367Z,2.33
2019-04-23T00:21:24.823Z,2.30
2019-04-23T00:23:59.545Z,2.40
2019-04-23T00:26:24.036Z,2.17
2019-04-23T00:31:36.233Z,1.90
2019-04-23T00:33:57.807Z,2.40
2019-04-23T00:36:32.737Z,2.50
2019-04-23T00:38:59.267Z,2.27
2019-04-23T00:41:33.474Z,2.53
2019-04-23T00:44:02.721Z,2.50
2019-04-23T00:49:04.917Z,2.67
2019-04-23T00:51:38.006Z,2.10
2019-04-23T00:54:06.011Z,2.30
2019-04-23T00:56:55.417Z,2.83
2019-04-23T00:59:05.329Z,2.10
2019-04-23T01:01:50.122Z,2.43
2019-04-23T01:04:12.415Z,2.63
2019-04-23T01:06:45.965Z,2.33
2019-04-23T01:09:20.243Z,2.20
2019-04-23T01:11:46.579Z,2.13
2019-04-23T01:14:20.278Z,2.60
2019-04-23T01:16:42.573Z,2.63
2019-04-23T01:19:54.828Z,2.27
2019-04-23T01:22:10.491Z,2.23
2019-04-23T01:24:46.694Z,2.17
2019-04-23T01:30:17.842Z,2.07
2019-04-23T01:32:46.568Z,2.57
2019-04-23T01:37:46.589Z,2.83
2019-04-23T01:40:27.229Z,2.63
2019-04-23T01:42:49.320Z,2.53
2019-04-23T01:45:24.282Z,2.30
2019-04-23T01:47:58.003Z,2.80
2019-04-23T01:50:32.706Z,2.60
2019-04-23T01:55:33.039Z,2.53
2019-04-23T01:58:23.738Z,2.20
2019-04-23T02:00:41.011Z,2.60
2019-04-23T02:03:20.674Z,2.60
2019-04-23T02:05:42.636Z,2.50
2019-04-23T02:08:09.532Z,2.10
2019-04-23T02:13:16.819Z,2.57
2019-04-23T02:15:42.475Z,2.87
2019-04-23T02:18:17.969Z,3.07
2019-04-23T02:20:47.849Z,2.40
2019-04-23T02:26:46.800Z,2.27
2019-04-23T02:29:14.911Z,2.47
2019-04-23T02:36:45.195Z,2.97
2019-04-23T02:39:19.787Z,2.30
2019-04-23T02:42:00.727Z,2.83
2019-04-23T02:44:16.690Z,2.57
2019-04-23T02:46:53.913Z,2.23
2019-04-23T02:52:10.875Z,3.30
2019-04-23T02:54:38.206Z,3.03
2019-04-23T02:57:05.700Z,2.83
2019-04-23T02:59:40.004Z,2.93
2019-04-23T03:02:15.445Z,3.43
2019-04-23T03:04:34.853Z,2.70
2019-04-23T03:09:37.006Z,2.90
2019-04-23T03:12:26.586Z,3.03
2019-04-23T03:14:41.713Z,2.67
2019-04-23T03:17:11.095Z,2.90
2019-04-23T03:22:50.725Z,2.70
2019-04-23T03:28:33.363Z,3.00
2019-04-23T03:38:41.743Z,2.90
2019-04-23T03:41:06.963Z,3.30
2019-04-23T03:43:34.081Z,2.97
2019-04-23T03:46:16.167Z,3.07
2019-04-23T03:51:01.362Z,3.07
2019-04-23T04:01:11.909Z,2.60
2019-04-23T04:06:37.421Z,3.30
2019-04-23T04:08:50.809Z,3.03
2019-04-23T04:11:14.654Z,3.10
2019-04-23T04:13:51.351Z,2.37
2019-04-23T04:16:17.883Z,2.97
2019-04-23T04:18:57.288Z,3.63
2019-04-23T04:21:27.313Z,2.90
2019-04-23T04:24:05.440Z,3.10
2019-04-23T04:26:34.601Z,2.80
2019-04-23T04:31:43.032Z,3.10
2019-04-23T04:37:00.756Z,6.43
2019-04-23T04:39:19.521Z,17.07
2019-04-23T04:41:37.551Z,16.33
2019-04-23T04:46:55.539Z,17.37
2019-04-23T04:49:15.116Z,18.70
2019-04-23T04:56:58.151Z,16.20
2019-04-23T04:59:13.978Z,15.87
2019-04-23T05:02:00.505Z,15.87
2019-04-23T05:04:26.731Z,14.80
2019-04-23T05:07:02.231Z,14.10
2019-04-23T05:14:35.312Z,13.77
2019-04-23T05:19:40.798Z,13.30
2019-04-23T05:24:30.606Z,13.17
2019-04-23T05:27:01.094Z,12.20
2019-04-23T05:29:31.256Z,12.47
2019-04-23T05:31:58.040Z,12.60
2019-04-23T05:34:38.137Z,12.10
2019-04-23T05:37:04.193Z,11.77
2019-04-23T05:44:43.284Z,11.37
2019-04-23T05:47:16.062Z,11.47
2019-04-23T05:49:47.451Z,11.30
2019-04-23T05:52:18.625Z,11.10
2019-04-23T05:55:01.819Z,11.60
2019-04-23T05:57:13.774Z,11.47
2019-04-23T05:59:51.702Z,11.10
2019-04-23T06:02:20.389Z,10.80
2019-04-23T06:05:13.180Z,11.33
2019-04-23T06:10:00.576Z,10.10
2019-04-23T06:12:25.482Z,10.07
2019-04-23T06:14:57.401Z,9.83
2019-04-23T06:17:29.746Z,9.20
2019-04-23T06:22:45.586Z,9.83
2019-04-23T06:25:12.934Z,9.50
2019-04-23T06:27:40.180Z,9.57
2019-04-23T06:30:08.755Z,9.93
2019-04-23T06:32:44.747Z,9.27
2019-04-23T06:35:09.762Z,9.83
2019-04-23T06:38:13.620Z,10.03
2019-04-23T06:42:58.228Z,9.50
2019-04-23T06:45:27.742Z,9.07
2019-04-23T06:48:06.239Z,8.83
2019-04-23T06:50:35.422Z,8.77
2019-04-23T06:52:54.563Z,8.93
2019-04-23T06:55:40.754Z,8.77
2019-04-23T06:58:14.974Z,8.47
2019-04-23T07:00:41.859Z,8.57
2019-04-23T07:03:18.177Z,8.17
2019-04-23T07:06:11.924Z,8.37
2019-04-23T07:08:55.151Z,8.20
2019-04-23T07:11:08.310Z,8.60
2019-04-23T07:13:41.351Z,7.77
2019-04-23T07:16:08.030Z,7.70
2019-04-23T07:18:35.834Z,7.70
2019-04-23T07:21:15.394Z,7.50
2019-04-23T07:23:44.930Z,8.27
2019-04-23T07:26:20.397Z,7.53
2019-04-23T07:28:50.294Z,7.97
2019-04-23T07:31:20.230Z,8.20
2019-04-23T07:33:52.802Z,6.97
2019-04-23T07:36:24.341Z,6.77
2019-04-23T07:39:17.548Z,6.90
2019-04-23T07:48:03.765Z,6.70
2019-04-23T07:53:11.484Z,7.40
2019-04-23T07:55:39.710Z,6.87
2019-04-23T07:58:06.638Z,6.50
2019-04-23T08:00:44.358Z,6.30
2019-04-23T08:03:14.431Z,6.50
2019-04-23T08:08:09.191Z,6.73
2019-04-23T08:10:47.142Z,6.37
2019-04-23T08:13:27.916Z,6.63
2019-04-23T08:15:51.954Z,6.37
2019-04-23T08:18:19.870Z,5.83
2019-04-23T08:20:54.197Z,5.90
2019-04-23T08:23:46.800Z,5.73
2019-04-23T08:26:34.311Z,5.73
2019-04-23T08:29:06.342Z,5.80
2019-04-23T08:39:10.253Z,4.33
2019-04-23T08:41:46.038Z,5.07
2019-04-23T08:44:21.703Z,6.00
2019-04-23T08:47:02.666Z,5.20
2019-04-23T08:49:29.561Z,5.23
2019-04-23T08:52:09.590Z,5.20
2019-04-23T08:54:46.505Z,5.07
2019-04-23T08:57:08.736Z,4.47
2019-04-23T08:59:38.911Z,4.50
2019-04-23T09:02:22.057Z,4.80
2019-04-23T09:04:50.364Z,4.27
2019-04-23T09:07:16.779Z,4.53
2019-04-23T09:14:56.528Z,4.07
2019-04-23T09:17:16.775Z,4.80
2019-04-23T09:20:09.314Z,4.40
2019-04-23T09:24:55.643Z,4.87
2019-04-23T09:32:30.193Z,4.57
2019-04-23T09:35:27.499Z,4.40
2019-04-23T09:38:11.578Z,5.03
2019-04-23T09:43:47.137Z,4.37
2019-04-23T09:46:25.640Z,4.23
2019-04-23T09:49:06.311Z,4.20
2019-04-23T09:51:29.890Z,4.30
2019-04-23T09:54:04.295Z,4.00
2019-04-23T09:56:37.587Z,4.00
2019-04-23T09:59:09.119Z,4.60
2019-04-23T10:01:29.055Z,4.00
2019-04-23T10:03:50.875Z,3.63
2019-04-23T10:06:18.273Z,3.80
2019-04-23T10:08:47.529Z,3.80
2019-04-23T10:11:13.762Z,3.50
2019-04-23T10:13:45.072Z,3.23
2019-04-23T10:16:17.328Z,3.93
2019-04-23T10:18:47.011Z,3.63
2019-04-23T10:21:17.455Z,3.33
2019-04-23T10:23:47.653Z,3.77
2019-04-23T10:26:17.826Z,3.43
2019-04-23T10:28:58.165Z,3.47
2019-04-23T10:31:28.077Z,3.37
2019-04-23T10:33:58.047Z,3.73
2019-04-23T10:36:30.057Z,3.33
2019-04-23T10:39:06.099Z,2.87
2019-04-23T10:41:32.364Z,3.67
2019-04-23T10:44:13.017Z,3.20
2019-04-23T10:50:16.996Z,2.90
2019-04-23T10:52:53.779Z,3.40
2019-04-23T10:55:32.973Z,3.30
2019-04-23T10:57:49.465Z,3.00
2019-04-23T11:00:24.020Z,2.83
2019-04-23T11:02:51.004Z,2.80
2019-04-23T11:05:35.560Z,2.90
2019-04-23T11:07:47.135Z,3.03
2019-04-23T11:13:11.125Z,2.67
2019-04-23T11:18:08.985Z,2.67
2019-04-23T11:23:09.168Z,3.10
2019-04-23T11:25:59.156Z,2.77
2019-04-23T11:28:20.443Z,2.70
2019-04-23T11:30:55.263Z,2.43
2019-04-23T11:33:30.442Z,2.90
2019-04-23T11:36:35.781Z,2.70
2019-04-23T11:41:17.049Z,2.90
2019-04-23T11:43:33.053Z,2.50
2019-04-23T11:46:18.042Z,2.37
2019-04-23T11:48:52.282Z,2.47
2019-04-23T11:53:48.228Z,2.33
2019-04-23T11:56:31.120Z,2.47
2019-04-23T12:04:27.668Z,2.40
2019-04-23T12:07:20.619Z,2.40
2019-04-23T12:12:23.897Z,2.00
2019-04-23T12:15:18.090Z,2.23
2019-04-23T12:22:42.499Z,2.50
2019-04-23T12:25:18.123Z,1.80
2019-04-23T12:32:48.065Z,2.10
2019-04-23T12:37:58.673Z,2.00
2019-04-23T12:40:24.864Z,2.00
2019-04-23T12:48:02.209Z,2.30
2019-04-23T12:50:46.841Z,1.87
2019-04-23T12:53:29.336Z,1.90
2019-04-23T13:00:36.401Z,1.80
2019-04-23T13:03:24.626Z,2.00
2019-04-23T13:05:53.036Z,1.70
2019-04-23T13:08:30.444Z,1.90
2019-04-23T13:10:45.380Z,1.77
2019-04-23T13:13:23.832Z,1.90
2019-04-23T13:15:47.852Z,1.67
2019-04-23T13:18:22.965Z,1.60
2019-04-23T13:20:49.630Z,2.00
2019-04-23T13:26:00.917Z,1.70
2019-04-23T13:28:35.495Z,1.80
2019-04-23T13:33:42.154Z,1.77
2019-04-23T13:36:24.203Z,1.70
2019-04-23T13:41:19.214Z,1.57
2019-04-23T13:46:13.963Z,1.50
2019-04-23T13:48:40.029Z,1.70
2019-04-23T13:51:23.820Z,1.67
2019-04-23T13:53:59.327Z,1.50
2019-04-23T13:56:25.247Z,1.53
2019-04-23T13:58:51.882Z,1.80
2019-04-23T14:01:28.757Z,1.60
2019-04-23T14:11:26.291Z,1.40
2019-04-23T14:19:16.544Z,1.53
2019-04-23T14:21:51.482Z,1.60
2019-04-23T14:27:03.508Z,1.30
2019-04-23T14:29:32.392Z,1.37
2019-04-23T14:34:40.459Z,1.30
2019-04-23T14:37:06.238Z,1.27
2019-04-23T14:39:40.140Z,1.30
2019-04-23T14:45:10.031Z,1.30
2019-04-23T14:50:24.328Z,1.20
2019-04-23T14:52:45.958Z,1.20
2019-04-23T14:55:40.210Z,1.20
2019-04-23T14:57:42.391Z,1.30
2019-04-23T15:00:07.294Z,1.37
2019-04-23T15:02:48.254Z,1.40
2019-04-23T15:05:21.677Z,1.10
2019-04-23T15:07:42.127Z,1.03
2019-04-23T15:10:32.205Z,1.10
2019-04-23T15:12:46.284Z,0.90
2019-04-23T15:15:22.505Z,1.27
2019-04-23T15:17:51.934Z,1.10
2019-04-23T15:20:24.946Z,1.20
2019-04-23T15:23:13.902Z,1.10
2019-04-23T15:25:36.849Z,1.30
2019-04-23T15:28:07.564Z,1.27
2019-04-23T15:30:22.629Z,1.23
2019-04-23T15:33:11.694Z,1.00
2019-04-23T15:35:49.409Z,1.10
2019-04-23T15:38:30.436Z,1.10
2019-04-23T15:40:34.743Z,0.80
2019-04-23T15:43:12.188Z,1.20
2019-04-23T15:48:15.607Z,1.30
2019-04-23T15:50:43.465Z,0.97
2019-04-23T15:53:04.729Z,1.00
2019-04-23T15:58:30.012Z,1.20
2019-04-23T16:01:17.871Z,1.80
2019-04-23T16:03:17.529Z,1.60
2019-04-23T16:05:46.866Z,1.90
2019-04-23T16:08:51.731Z,1.40
2019-04-23T16:11:33.518Z,1.67
2019-04-23T16:14:15.706Z,1.40
2019-04-23T16:16:29.850Z,1.60
2019-04-23T16:19:25.806Z,1.73
2019-04-23T16:24:48.819Z,1.50
2019-04-23T16:29:46.636Z,1.17
2019-04-23T16:32:08.281Z,1.20
2019-04-23T16:34:38.109Z,1.40
2019-04-23T16:39:56.082Z,1.20
2019-04-23T16:42:26.720Z,1.20
2019-04-23T16:45:07.512Z,1.17
2019-04-23T16:52:26.484Z,1.10
2019-04-23T16:54:58.586Z,1.20
2019-04-23T17:00:13.170Z,1.60
2019-04-23T17:02:38.770Z,2.50
2019-04-23T17:05:16.123Z,2.43
2019-04-23T17:07:36.801Z,2.27
2019-04-23T17:10:16.087Z,2.00
2019-04-23T17:12:46.820Z,2.27
2019-04-23T17:15:21.186Z,2.23
2019-04-23T17:17:37.960Z,2.07
2019-04-23T17:20:16.212Z,1.70
2019-04-23T17:22:47.114Z,1.90
2019-04-23T17:25:22.402Z,1.90
2019-04-23T17:28:01.102Z,1.47
2019-04-23T17:30:28.111Z,1.60
2019-04-23T17:33:09.700Z,1.30
2019-04-23T17:35:31.073Z,1.60
2019-04-23T17:38:07.499Z,1.40
2019-04-23T17:40:50.207Z,1.30
2019-04-23T17:43:26.942Z,3.20
2019-04-23T17:45:57.222Z,4.80
2019-04-23T17:48:28.712Z,5.07
2019-04-23T17:51:11.575Z,5.97
2019-04-23T17:53:40.314Z,9.00
2019-04-23T18:01:22.300Z,4.40
2019-04-23T18:03:55.862Z,3.90
2019-04-23T18:09:00.537Z,4.80
2019-04-23T18:13:57.330Z,3.43
2019-04-23T18:19:05.789Z,3.53
2019-04-23T18:21:52.828Z,3.53
2019-04-23T18:24:16.731Z,3.10
2019-04-23T18:26:52.859Z,2.60
2019-04-23T18:29:43.978Z,2.83
2019-04-23T18:32:22.128Z,2.73
2019-04-23T18:37:32.549Z,2.50
2019-04-23T18:39:54.694Z,2.23
2019-04-23T18:42:39.867Z,2.67
2019-04-23T18:45:03.508Z,3.27
2019-04-23T18:47:40.451Z,2.47
2019-04-23T18:50:13.368Z,2.00
2019-04-23T18:55:29.788Z,2.00
2019-04-23T18:57:58.972Z,1.93
2019-04-23T19:00:38.019Z,2.50
2019-04-23T19:03:20.463Z,1.53
2019-04-23T19:06:13.295Z,2.00
2019-04-23T19:11:44.025Z,1.40
2019-04-23T19:14:11.156Z,1.50
2019-04-23T19:16:53.194Z,1.60
2019-04-23T19:19:09.658Z,1.10
2019-04-23T19:22:07.071Z,1.60
2019-04-23T19:24:18.724Z,2.10
2019-04-23T19:31:56.809Z,1.60
2019-04-23T19:34:36.292Z,1.63
2019-04-23T19:42:03.648Z,1.37
2019-04-23T19:44:40.662Z,1.40
2019-04-23T19:47:10.764Z,1.40
2019-04-23T19:49:56.585Z,1.50
2019-04-23T19:52:34.770Z,1.33
2019-04-23T19:57:33.835Z,1.90
2019-04-23T20:04:52.243Z,1.67
2019-04-23T20:09:51.755Z,1.20
2019-04-23T20:17:39.546Z,1.00
2019-04-23T20:19:55.014Z,1.47
2019-04-23T20:22:42.150Z,1.50
2019-04-23T20:32:07.103Z,1.10
2019-04-23T20:35:56.353Z,1.23
2019-04-23T20:38:59.638Z,1.10
2019-04-23T20:41:15.336Z,1.03
2019-04-23T20:43:32.461Z,1.23
2019-04-23T20:45:58.799Z,1.23
2019-04-23T20:48:44.732Z,1.00
2019-04-23T20:50:56.430Z,1.10
2019-04-23T20:53:34.908Z,1.10
2019-04-23T20:56:14.345Z,1.00
2019-04-23T20:58:47.543Z,1.10
2019-04-23T21:02:02.879Z,1.07
2019-04-23T21:04:36.851Z,1.00
2019-04-23T21:06:48.740Z,1.10
2019-04-23T21:14:26.742Z,0.87
2019-04-23T21:16:48.138Z,1.20
2019-04-23T21:19:25.147Z,0.90
2019-04-23T21:22:09.814Z,1.00
2019-04-23T21:24:42.333Z,0.93
2019-04-23T21:29:58.707Z,0.80
2019-04-23T21:32:35.290Z,0.90
2019-04-23T21:35:16.170Z,1.00
2019-04-23T21:38:00.318Z,1.13
2019-04-23T21:43:16.291Z,1.00
2019-04-23T21:46:02.456Z,0.93
2019-04-23T21:48:33.866Z,0.77
2019-04-23T21:51:03.319Z,0.87
2019-04-23T21:53:25.975Z,1.00
2019-04-23T21:56:06.874Z,0.80
2019-04-23T21:58:36.684Z,1.20
2019-04-23T22:01:21.362Z,0.83
2019-04-23T22:04:06.501Z,0.73
2019-04-23T22:06:21.883Z,1.70
2019-04-23T22:08:52.436Z,0.80
2019-04-23T22:11:43.877Z,1.00
2019-04-23T22:14:05.534Z,0.97
2019-04-23T22:16:23.442Z,0.73
2019-04-23T22:24:27.525Z,1.00
2019-04-23T22:26:58.394Z,0.83
2019-04-23T22:34:22.071Z,0.90
2019-04-23T22:37:03.899Z,0.63
2019-04-23T22:39:26.923Z,0.90
2019-04-23T22:41:59.456Z,0.90
2019-04-23T22:44:30.876Z,0.90
2019-04-23T22:47:03.965Z,0.97
2019-04-23T22:49:41.807Z,0.80
2019-04-23T22:52:16.595Z,0.90
2019-04-23T22:54:41.962Z,0.77
2019-04-23T22:57:04.853Z,0.90
2019-04-23T22:59:50.263Z,0.63
2019-04-23T23:02:26.937Z,0.57
2019-04-23T23:05:12.208Z,0.80
2019-04-23T23:07:28.943Z,0.90
2019-04-23T23:10:12.830Z,0.90
2019-04-23T23:12:49.272Z,0.60
2019-04-23T23:15:15.984Z,0.73
2019-04-23T23:17:43.036Z,0.80
2019-04-23T23:20:20.856Z,0.60
2019-04-23T23:22:47.326Z,0.73
2019-04-23T23:25:13.389Z,0.67
2019-04-23T23:27:50.210Z,0.77
2019-04-23T23:32:51.125Z,0.70
2019-04-23T23:37:48.187Z,0.87
2019-04-23T23:42:56.984Z,0.70
2019-04-23T23:45:27.187Z,1.10
2019-04-23T23:47:55.194Z,0.67
2019-04-23T23:50:27.084Z,0.70
2019-04-23T23:53:02.490Z,0.60
2019-04-23T23:55:27.688Z,1.07
2019-04-23T23:58:11.053Z,0.87
